Time;durP1;ratioP1;P1;durP2;ratioP2;P2;SDS_P1;SDS_P2;PMS_P1;PMS_P2;Temp;Humidity;BMP_temperature;BMP_pressure;BME280_temperature;BME280_humidity;BME280_pressure;Samples;Min_cycle;Max_cycle;Signal;HPM_P1;HPM_P2
2022/03/23 00:03:08;;;;;;;20.42;14.40;;;;;;;;;;8147972;28;20825;-59
2022/03/23 00:07:09;;;;;;;21.38;13.00;;;;;;;;;;8149758;28;20036;-59
2022/03/23 00:11:09;;;;;;;20.98;13.27;;;;;;;;;;8147654;28;20094;-59
2022/03/23 00:15:10;;;;;;;25.88;14.73;;;;;;;;;;8162049;28;20585;-60
2022/03/23 00:19:10;;;;;;;24.27;14.63;;;;;;;;;;8145823;29;20205;-59
2022/03/23 00:23:11;;;;;;;21.60;15.10;;;;;;;;;;8150062;28;20029;-60
2022/03/23 00:27:11;;;;;;;22.33;14.55;;;;;;;;;;8149453;29;20064;-59
2022/03/23 00:31:11;;;;;;;27.30;16.13;;;;;;;;;;8148396;28;20800;-59
2022/03/23 00:35:12;;;;;;;28.15;16.33;;;;;;;;;;8145982;29;20030;-60
2022/03/23 00:39:13;;;;;;;22.40;14.98;;;;;;;;;;8147278;29;20082;-60
2022/03/23 00:43:13;;;;;;;25.60;14.82;;;;;;;;;;8147233;28;20197;-60
2022/03/23 00:47:14;;;;;;;24.58;16.13;;;;;;;;;;8146814;28;20226;-59
2022/03/23 00:51:14;;;;;;;24.25;16.08;;;;;;;;;;8147542;29;20794;-60
2022/03/23 00:55:15;;;;;;;27.85;17.00;;;;;;;;;;8147538;29;20031;-59
2022/03/23 00:59:15;;;;;;;24.13;15.93;;;;;;;;;;8146329;29;20070;-60
2022/03/23 01:03:15;;;;;;;25.35;16.42;;;;;;;;;;8147076;28;20115;-59
2022/03/23 01:07:15;;;;;;;27.20;16.00;;;;;;;;;;8142501;29;20023;-59
2022/03/23 01:11:15;;;;;;;23.08;16.35;;;;;;;;;;8143505;28;20572;-59
2022/03/23 01:15:16;;;;;;;23.58;14.93;;;;;;;;;;8145338;28;20194;-60
2022/03/23 01:19:17;;;;;;;28.10;15.40;;;;;;;;;;8147659;29;20128;-59
2022/03/23 01:23:17;;;;;;;25.33;15.48;;;;;;;;;;8146461;29;20027;-60
2022/03/23 01:27:17;;;;;;;24.25;15.07;;;;;;;;;;8146070;28;20445;-59
2022/03/23 01:31:18;;;;;;;25.08;15.70;;;;;;;;;;8143436;28;20872;-60
2022/03/23 01:35:18;;;;;;;25.23;15.35;;;;;;;;;;8146723;28;20136;-59
2022/03/23 01:39:18;;;;;;;25.48;15.10;;;;;;;;;;8143748;28;20030;-59
2022/03/23 01:43:18;;;;;;;24.73;15.93;;;;;;;;;;8147387;29;20027;-59
2022/03/23 01:47:18;;;;;;;23.85;15.48;;;;;;;;;;8144280;28;20043;-59
2022/03/23 01:51:19;;;;;;;24.42;15.13;;;;;;;;;;8146292;28;20082;-59
2022/03/23 01:55:20;;;;;;;23.73;15.38;;;;;;;;;;8145535;28;20568;-59
2022/03/23 01:59:20;;;;;;;22.73;14.30;;;;;;;;;;8145180;28;20027;-59
2022/03/23 02:03:21;;;;;;;22.42;15.43;;;;;;;;;;8144632;28;20042;-60
2022/03/23 02:07:22;;;;;;;25.98;15.35;;;;;;;;;;8145553;29;20024;-59
2022/03/23 02:11:23;;;;;;;25.83;15.55;;;;;;;;;;8144080;28;20032;-59
2022/03/23 02:15:25;;;;;;;23.95;16.17;;;;;;;;;;8147024;28;20039;-59
2022/03/23 02:19:28;;;;;;;24.92;16.10;;;;;;;;;;8149834;28;20027;-59
2022/03/23 02:23:28;;;;;;;28.17;16.17;;;;;;;;;;8147363;28;20026;-59
2022/03/23 02:27:29;;;;;;;30.55;17.25;;;;;;;;;;8146735;29;20150;-59
2022/03/23 02:31:29;;;;;;;28.40;17.30;;;;;;;;;;8147713;28;20118;-59
2022/03/23 02:35:29;;;;;;;27.08;17.38;;;;;;;;;;8148478;29;20719;-59
2022/03/23 02:39:29;;;;;;;29.70;17.57;;;;;;;;;;8148226;28;20146;-59
2022/03/23 02:43:30;;;;;;;28.95;17.10;;;;;;;;;;8150113;28;20279;-60
2022/03/23 02:47:30;;;;;;;28.83;17.98;;;;;;;;;;8154765;28;20087;-59
2022/03/23 02:51:30;;;;;;;29.38;18.10;;;;;;;;;;8156252;29;20059;-60
2022/03/23 03:04:12;;;;;;;29.33;16.70;;;;;;;;;;8154000;28;20563;-59
2022/03/23 03:12:31;;;;;;;23.58;16.60;;;;;;;;;;8153635;29;20412;-59
2022/03/23 03:16:31;;;;;;;25.40;15.97;;;;;;;;;;8153242;28;20044;-59
2022/03/23 03:20:31;;;;;;;27.75;16.30;;;;;;;;;;8153137;28;20290;-59
2022/03/23 03:24:31;;;;;;;29.13;16.60;;;;;;;;;;8153227;28;20028;-59
2022/03/23 03:28:35;;;;;;;26.83;16.63;;;;;;;;;;8153845;29;20030;-59
2022/03/23 03:32:36;;;;;;;29.73;16.73;;;;;;;;;;8153523;28;20039;-59
2022/03/23 03:36:36;;;;;;;24.53;15.87;;;;;;;;;;8151151;28;20032;-59
2022/03/23 03:40:36;;;;;;;32.33;16.30;;;;;;;;;;8153057;29;20297;-59
2022/03/23 03:44:36;;;;;;;26.60;17.13;;;;;;;;;;8151423;28;20032;-59
2022/03/23 03:48:37;;;;;;;30.77;16.75;;;;;;;;;;8152285;28;20043;-59
2022/03/23 03:52:37;;;;;;;28.65;16.45;;;;;;;;;;8153385;28;20110;-60
2022/03/23 03:56:37;;;;;;;24.52;15.23;;;;;;;;;;8152449;28;20138;-59
2022/03/23 04:00:38;;;;;;;26.63;16.58;;;;;;;;;;8150626;28;20900;-60
2022/03/23 04:04:38;;;;;;;23.70;15.37;;;;;;;;;;8153389;29;20035;-59
2022/03/23 04:08:38;;;;;;;24.20;15.43;;;;;;;;;;8151423;29;20342;-59
2022/03/23 04:12:39;;;;;;;24.02;14.57;;;;;;;;;;8150794;28;21133;-59
2022/03/23 04:16:39;;;;;;;22.77;15.18;;;;;;;;;;8152366;28;20150;-59
2022/03/23 04:20:39;;;;;;;24.80;15.35;;;;;;;;;;8150594;28;20032;-59
2022/03/23 04:24:39;;;;;;;23.65;14.20;;;;;;;;;;8150702;29;20038;-59
2022/03/23 04:28:40;;;;;;;24.00;14.27;;;;;;;;;;8150895;29;20069;-59
2022/03/23 04:32:40;;;;;;;21.52;14.30;;;;;;;;;;8150958;28;20102;-59
2022/03/23 04:36:40;;;;;;;21.80;14.05;;;;;;;;;;8149903;29;20113;-59
2022/03/23 04:40:41;;;;;;;22.58;13.80;;;;;;;;;;8151759;28;20075;-60
2022/03/23 04:44:41;;;;;;;21.33;13.40;;;;;;;;;;8149269;28;20040;-59
2022/03/23 04:48:42;;;;;;;25.50;15.07;;;;;;;;;;8150466;28;20053;-59
2022/03/23 04:52:43;;;;;;;23.08;13.32;;;;;;;;;;8150146;28;21056;-60
2022/03/23 04:56:43;;;;;;;25.05;14.73;;;;;;;;;;8150814;29;20062;-59
2022/03/23 05:00:44;;;;;;;21.58;13.98;;;;;;;;;;8149231;28;20040;-59
2022/03/23 05:04:44;;;;;;;22.33;14.43;;;;;;;;;;8152001;28;20035;-59
2022/03/23 05:08:44;;;;;;;24.65;15.07;;;;;;;;;;8149387;28;20066;-60
2022/03/23 05:12:45;;;;;;;24.60;14.30;;;;;;;;;;8149690;28;20404;-59
2022/03/23 05:16:45;;;;;;;24.50;13.50;;;;;;;;;;8149314;28;20981;-59
2022/03/23 05:20:46;;;;;;;25.20;14.02;;;;;;;;;;8149293;29;20470;-59
2022/03/23 05:24:46;;;;;;;20.33;12.73;;;;;;;;;;8149106;29;20023;-59
2022/03/23 05:28:46;;;;;;;19.30;12.13;;;;;;;;;;8148890;28;20067;-59
2022/03/23 05:32:46;;;;;;;20.48;12.50;;;;;;;;;;8148162;28;20283;-59
2022/03/23 05:36:47;;;;;;;22.30;11.75;;;;;;;;;;8149872;29;20066;-59
2022/03/23 05:40:47;;;;;;;19.73;11.80;;;;;;;;;;8148560;29;20031;-59
2022/03/23 05:44:47;;;;;;;20.60;12.52;;;;;;;;;;8147989;28;20283;-59
2022/03/23 05:48:48;;;;;;;29.90;12.32;;;;;;;;;;8141556;28;20038;-59
2022/03/23 05:52:48;;;;;;;28.10;12.80;;;;;;;;;;8143409;29;20473;-59
2022/03/23 05:56:52;;;;;;;21.00;12.00;;;;;;;;;;8144124;28;20496;-59
2022/03/23 06:00:52;;;;;;;26.02;12.43;;;;;;;;;;8140522;28;20275;-59
2022/03/23 06:04:52;;;;;;;20.05;12.40;;;;;;;;;;8144240;29;20087;-59
2022/03/23 06:08:52;;;;;;;18.38;11.20;;;;;;;;;;8140105;28;20192;-59
2022/03/23 06:12:52;;;;;;;22.27;10.88;;;;;;;;;;8141666;29;20105;-59
2022/03/23 06:16:53;;;;;;;15.77;9.95;;;;;;;;;;8141972;28;20480;-60
2022/03/23 06:20:53;;;;;;;16.75;9.77;;;;;;;;;;8142452;29;20857;-60
2022/03/23 06:24:53;;;;;;;15.25;9.30;;;;;;;;;;8140934;28;20035;-60
2022/03/23 06:28:53;;;;;;;19.07;9.97;;;;;;;;;;8141755;29;20041;-60
2022/03/23 06:32:53;;;;;;;16.98;9.30;;;;;;;;;;8141193;28;20298;-61
2022/03/23 06:36:53;;;;;;;17.58;8.95;;;;;;;;;;8142309;29;20370;-60
2022/03/23 06:40:54;;;;;;;16.05;10.25;;;;;;;;;;8142522;28;20150;-60
2022/03/23 06:44:54;;;;;;;17.92;9.77;;;;;;;;;;8138290;29;20811;-61
2022/03/23 06:48:54;;;;;;;25.25;12.80;;;;;;;;;;8141330;28;20071;-60
2022/03/23 06:52:54;;;;;;;24.00;12.57;;;;;;;;;;8141663;28;20042;-61
2022/03/23 06:56:55;;;;;;;22.42;11.75;;;;;;;;;;8141522;28;20109;-61
2022/03/23 07:00:57;;;;;;;21.95;11.00;;;;;;;;;;8141387;28;20043;-61
2022/03/23 07:04:57;;;;;;;12.45;9.52;;;;;;;;;;8142745;29;20133;-61
2022/03/23 07:13:16;;;;;;;25.75;9.82;;;;;;;;;;8143432;29;20082;-61
2022/03/23 07:17:17;;;;;;;14.95;9.70;;;;;;;;;;8141912;28;20094;-61
2022/03/23 07:21:17;;;;;;;11.77;9.45;;;;;;;;;;8139424;29;20027;-61
2022/03/23 07:25:17;;;;;;;14.45;9.45;;;;;;;;;;8142593;28;20039;-61
2022/03/23 07:29:18;;;;;;;14.35;9.43;;;;;;;;;;8141934;28;20043;-61
2022/03/23 07:33:18;;;;;;;14.45;9.35;;;;;;;;;;8147878;28;20043;-62
2022/03/23 07:37:18;;;;;;;12.67;9.07;;;;;;;;;;8146209;29;20035;-61
2022/03/23 07:41:18;;;;;;;17.57;9.07;;;;;;;;;;8145863;29;20055;-62
2022/03/23 07:45:19;;;;;;;10.15;8.85;;;;;;;;;;8147169;28;20118;-62
2022/03/23 07:49:19;;;;;;;10.77;7.38;;;;;;;;;;8144923;28;20090;-62
2022/03/23 07:53:20;;;;;;;12.18;8.27;;;;;;;;;;8146949;29;20644;-62
2022/03/23 07:57:21;;;;;;;14.90;9.17;;;;;;;;;;8145580;28;20062;-62
2022/03/23 08:01:21;;;;;;;14.48;9.68;;;;;;;;;;8144334;28;20057;-62
2022/03/23 08:05:21;;;;;;;14.07;9.15;;;;;;;;;;8145745;28;20097;-62
2022/03/23 08:09:21;;;;;;;13.00;8.77;;;;;;;;;;8147189;28;20395;-62
2022/03/23 08:13:21;;;;;;;14.23;8.10;;;;;;;;;;8146790;29;20031;-62
2022/03/23 08:17:22;;;;;;;13.15;8.73;;;;;;;;;;8143434;28;20382;-62
2022/03/23 08:21:23;;;;;;;12.13;8.93;;;;;;;;;;8144433;28;20023;-62
2022/03/23 08:25:23;;;;;;;13.18;10.07;;;;;;;;;;8146807;29;20469;-62
2022/03/23 08:29:24;;;;;;;16.20;10.65;;;;;;;;;;8145088;29;20503;-62
2022/03/23 08:33:25;;;;;;;14.32;10.60;;;;;;;;;;8146070;28;20055;-62
2022/03/23 08:37:26;;;;;;;18.48;11.00;;;;;;;;;;8145616;29;20391;-62
2022/03/23 08:41:27;;;;;;;16.42;10.40;;;;;;;;;;8141985;28;20245;-62
2022/03/23 08:45:28;;;;;;;15.93;11.13;;;;;;;;;;8144913;28;20035;-62
2022/03/23 08:49:28;;;;;;;13.52;11.38;;;;;;;;;;8144977;28;20035;-62
2022/03/23 08:53:28;;;;;;;12.73;9.38;;;;;;;;;;8146276;29;20145;-62
2022/03/23 08:57:28;;;;;;;10.40;8.27;;;;;;;;;;8143297;28;20031;-61
2022/03/23 09:01:28;;;;;;;11.20;8.43;;;;;;;;;;8145095;28;20032;-61
2022/03/23 09:05:29;;;;;;;13.65;8.07;;;;;;;;;;8146090;29;20050;-61
2022/03/23 09:09:29;;;;;;;14.27;7.80;;;;;;;;;;8144108;28;20095;-61
2022/03/23 09:13:29;;;;;;;10.30;7.75;;;;;;;;;;8143151;29;20031;-61
2022/03/23 09:17:29;;;;;;;13.00;8.43;;;;;;;;;;8143399;28;20598;-61
2022/03/23 09:21:29;;;;;;;12.68;8.93;;;;;;;;;;8143252;28;20275;-61
2022/03/23 09:25:30;;;;;;;13.07;8.00;;;;;;;;;;8145967;28;20053;-61
2022/03/23 09:29:30;;;;;;;11.13;8.18;;;;;;;;;;8144430;28;20031;-61
2022/03/23 09:33:30;;;;;;;9.40;8.30;;;;;;;;;;8139786;28;20114;-61
2022/03/23 09:37:49;;;;;;;12.20;8.82;;;;;;;;;;8145010;29;20043;-61
2022/03/23 09:41:49;;;;;;;12.73;8.63;;;;;;;;;;8141782;28;20036;-61
2022/03/23 09:45:51;;;;;;;12.67;9.57;;;;;;;;;;8145141;28;20046;-61
2022/03/23 09:49:51;;;;;;;14.90;10.25;;;;;;;;;;8142035;28;20034;-60
2022/03/23 09:53:52;;;;;;;12.05;10.07;;;;;;;;;;8140321;28;20417;-60
2022/03/23 09:57:53;;;;;;;14.20;11.45;;;;;;;;;;8145389;29;20034;-60
2022/03/23 10:01:59;;;;;;;19.73;11.70;;;;;;;;;;8144292;28;20094;-60
2022/03/23 10:06:18;;;;;;;17.40;11.82;;;;;;;;;;8144000;29;20046;-60
2022/03/23 10:10:56;;;;;;;17.23;11.93;;;;;;;;;;8143078;29;20534;-60
2022/03/23 10:15:29;;;;;;;14.70;11.57;;;;;;;;;;8141420;29;20035;-60
2022/03/23 10:19:29;;;;;;;16.58;12.07;;;;;;;;;;8142287;29;20046;-60
2022/03/23 10:23:30;;;;;;;18.98;12.98;;;;;;;;;;8143804;28;20027;-60
2022/03/23 10:27:31;;;;;;;16.10;12.45;;;;;;;;;;8142982;28;20545;-61
2022/03/23 10:31:32;;;;;;;20.52;13.48;;;;;;;;;;8141160;28;20095;-60
2022/03/23 10:35:37;;;;;;;16.85;13.00;;;;;;;;;;8142246;28;20114;-60
2022/03/23 10:39:38;;;;;;;19.95;12.82;;;;;;;;;;8141348;29;20480;-60
2022/03/23 10:43:38;;;;;;;17.52;12.75;;;;;;;;;;8142330;29;20685;-60
2022/03/23 10:47:39;;;;;;;16.52;12.93;;;;;;;;;;8141753;28;20931;-61
2022/03/23 10:51:41;;;;;;;18.60;13.15;;;;;;;;;;8140656;28;20039;-60
2022/03/23 10:55:47;;;;;;;17.95;13.25;;;;;;;;;;8142934;28;20940;-61
2022/03/23 10:59:48;;;;;;;19.92;12.63;;;;;;;;;;8139961;28;20059;-61
2022/03/23 11:03:49;;;;;;;18.00;11.50;;;;;;;;;;8141533;28;20058;-60
2022/03/23 11:07:49;;;;;;;17.45;11.07;;;;;;;;;;8147316;28;20028;-60
2022/03/23 11:16:18;;;;;;;14.82;12.63;;;;;;;;;;8147025;28;20078;-61
2022/03/23 11:20:18;;;;;;;19.88;12.20;;;;;;;;;;8145854;29;20593;-60
2022/03/23 11:24:18;;;;;;;15.30;12.07;;;;;;;;;;8148607;29;20023;-60
2022/03/23 11:28:20;;;;;;;17.23;13.10;;;;;;;;;;8145671;28;20352;-60
2022/03/23 11:32:28;;;;;;;17.08;12.48;;;;;;;;;;8144997;28;20051;-61
2022/03/23 11:36:30;;;;;;;18.60;12.05;;;;;;;;;;8148972;29;20077;-61
2022/03/23 11:40:31;;;;;;;14.60;12.13;;;;;;;;;;8145015;28;20044;-60
2022/03/23 11:44:31;;;;;;;17.43;11.93;;;;;;;;;;8146427;28;20035;-61
2022/03/23 11:48:41;;;;;;;14.13;11.00;;;;;;;;;;8146198;28;20307;-61
2022/03/23 11:52:53;;;;;;;15.60;11.65;;;;;;;;;;8147170;29;20283;-61
2022/03/23 11:56:58;;;;;;;14.15;11.25;;;;;;;;;;8146841;29;20162;-61
2022/03/23 12:01:08;;;;;;;14.60;10.93;;;;;;;;;;8147855;28;20400;-61
2022/03/23 12:05:24;;;;;;;12.68;9.65;;;;;;;;;;8145338;29;20427;-60
2022/03/23 12:09:32;;;;;;;12.40;9.60;;;;;;;;;;8146520;28;20464;-61
2022/03/23 12:13:52;;;;;;;13.18;9.77;;;;;;;;;;8146721;28;20039;-61
2022/03/23 12:17:55;;;;;;;10.73;9.20;;;;;;;;;;8143685;28;20043;-60
2022/03/23 12:21:55;;;;;;;11.95;8.98;;;;;;;;;;8146922;29;20027;-61
2022/03/23 12:26:14;;;;;;;10.68;9.13;;;;;;;;;;8144634;28;20031;-61
2022/03/23 12:30:24;;;;;;;11.48;8.93;;;;;;;;;;8144540;28;20753;-61
2022/03/23 12:34:27;;;;;;;16.48;9.25;;;;;;;;;;8144549;29;20523;-61
2022/03/23 12:38:29;;;;;;;10.23;9.05;;;;;;;;;;8143124;29;20575;-61
2022/03/23 12:42:31;;;;;;;11.13;8.80;;;;;;;;;;8143795;29;20396;-61
2022/03/23 12:46:31;;;;;;;14.43;9.25;;;;;;;;;;8144050;28;20509;-61
2022/03/23 12:59:23;;;;;;;18.02;10.80;;;;;;;;;;8143484;29;20042;-61
2022/03/23 13:03:23;;;;;;;15.55;9.63;;;;;;;;;;8145420;28;20047;-60
2022/03/23 13:07:27;;;;;;;13.90;10.02;;;;;;;;;;8145935;29;20500;-60
2022/03/23 13:11:32;;;;;;;14.55;10.35;;;;;;;;;;8144281;29;20035;-60
2022/03/23 13:15:34;;;;;;;10.50;9.40;;;;;;;;;;8144490;28;20087;-60
2022/03/23 13:19:34;;;;;;;11.93;9.32;;;;;;;;;;8143462;28;20031;-60
2022/03/23 13:23:35;;;;;;;12.68;9.93;;;;;;;;;;8144897;28;20032;-60
2022/03/23 13:27:38;;;;;;;15.75;9.75;;;;;;;;;;8141995;28;20132;-60
2022/03/23 13:31:42;;;;;;;16.30;10.00;;;;;;;;;;8142301;28;20043;-60
2022/03/23 13:35:45;;;;;;;12.73;8.82;;;;;;;;;;8141103;28;20495;-61
2022/03/23 13:39:45;;;;;;;;;;;;;;;;;;8138181;29;20031;-60
2022/03/23 13:43:46;;;;;;;14.55;9.20;;;;;;;;;;8142011;29;20431;-60
2022/03/23 13:47:48;;;;;;;11.23;9.50;;;;;;;;;;8141493;28;20035;-60
2022/03/23 13:51:50;;;;;;;12.77;9.38;;;;;;;;;;8143165;28;20926;-60
2022/03/23 13:55:51;;;;;;;12.18;9.93;;;;;;;;;;8142466;29;20071;-60
2022/03/23 13:59:51;;;;;;;11.63;8.60;;;;;;;;;;8143729;29;20484;-60
2022/03/23 14:03:56;;;;;;;9.57;8.57;;;;;;;;;;8138554;28;20413;-60
2022/03/23 14:07:57;;;;;;;14.40;10.63;;;;;;;;;;8140594;29;20549;-60
2022/03/23 14:12:04;;;;;;;13.98;10.35;;;;;;;;;;8140422;29;20066;-60
2022/03/23 14:16:05;;;;;;;13.93;11.15;;;;;;;;;;8140226;28;20137;-60
2022/03/23 14:20:05;;;;;;;10.32;9.07;;;;;;;;;;8139527;29;20030;-60
2022/03/23 14:24:06;;;;;;;14.27;10.80;;;;;;;;;;8139180;29;20267;-60
2022/03/23 14:28:14;;;;;;;12.30;10.30;;;;;;;;;;8140881;28;20448;-60
2022/03/23 14:32:25;;;;;;;12.57;10.32;;;;;;;;;;8139078;28;20044;-60
2022/03/23 14:36:28;;;;;;;17.40;10.38;;;;;;;;;;8141111;29;20084;-60
2022/03/23 14:40:36;;;;;;;13.55;9.98;;;;;;;;;;8141995;28;20454;-60
2022/03/23 14:44:38;;;;;;;14.25;9.65;;;;;;;;;;8146810;29;20033;-60
2022/03/23 14:48:38;;;;;;;13.88;9.25;;;;;;;;;;8143955;28;20090;-60
2022/03/23 14:52:38;;;;;;;11.82;9.85;;;;;;;;;;8147356;29;20110;-60
2022/03/23 14:56:39;;;;;;;10.27;8.82;;;;;;;;;;8148410;28;20124;-60
2022/03/23 15:00:39;;;;;;;15.98;9.25;;;;;;;;;;8146066;28;20050;-60
2022/03/23 15:04:39;;;;;;;13.30;10.07;;;;;;;;;;8146076;28;20035;-61
2022/03/23 15:13:17;;;;;;;18.15;10.93;;;;;;;;;;8148210;29;20077;-60
2022/03/23 15:17:18;;;;;;;13.50;9.27;;;;;;;;;;8144514;28;20398;-60
2022/03/23 15:21:19;;;;;;;15.63;11.02;;;;;;;;;;8146138;28;20039;-60
2022/03/23 15:25:19;;;;;;;14.68;10.55;;;;;;;;;;8152974;29;20139;-61
2022/03/23 15:29:20;;;;;;;14.33;10.70;;;;;;;;;;8152641;29;20580;-60
2022/03/23 15:33:20;;;;;;;14.10;10.48;;;;;;;;;;8149686;28;20075;-60
2022/03/23 15:37:22;;;;;;;12.33;9.40;;;;;;;;;;8151932;28;20063;-60
2022/03/23 15:41:22;;;;;;;13.43;10.20;;;;;;;;;;8148559;29;20138;-60
2022/03/23 15:45:23;;;;;;;16.85;10.18;;;;;;;;;;8149344;28;20476;-60
2022/03/23 15:49:24;;;;;;;15.60;11.45;;;;;;;;;;8148675;28;20034;-60
2022/03/23 15:53:24;;;;;;;16.38;11.32;;;;;;;;;;8149757;29;20027;-60
2022/03/23 15:57:24;;;;;;;15.18;10.90;;;;;;;;;;8148647;28;20118;-60
2022/03/23 16:01:26;;;;;;;14.20;11.45;;;;;;;;;;8147390;28;20035;-60
2022/03/23 16:05:26;;;;;;;13.52;10.77;;;;;;;;;;8149405;29;20086;-60
2022/03/23 16:09:26;;;;;;;18.93;10.97;;;;;;;;;;8149140;29;20082;-60
2022/03/23 16:13:26;;;;;;;16.98;11.43;;;;;;;;;;8149219;28;20133;-60
2022/03/23 16:17:27;;;;;;;15.13;11.52;;;;;;;;;;8147702;28;20412;-60
2022/03/23 16:21:27;;;;;;;14.15;10.95;;;;;;;;;;8148497;28;20031;-61
2022/03/23 16:25:28;;;;;;;14.57;10.57;;;;;;;;;;8148078;28;20027;-60
2022/03/23 16:29:28;;;;;;;17.83;11.10;;;;;;;;;;8147775;29;20036;-60
2022/03/23 16:33:29;;;;;;;14.20;10.57;;;;;;;;;;8146939;28;20073;-60
2022/03/23 16:37:29;;;;;;;20.48;12.45;;;;;;;;;;8146085;29;20311;-60
2022/03/23 16:41:35;;;;;;;16.50;10.65;;;;;;;;;;8147453;29;20083;-60
2022/03/23 16:45:35;;;;;;;18.48;10.77;;;;;;;;;;8147774;28;20036;-60
2022/03/23 16:49:35;;;;;;;14.43;10.82;;;;;;;;;;8147323;29;20023;-60
2022/03/23 16:53:36;;;;;;;13.80;10.75;;;;;;;;;;8143310;29;20985;-60
2022/03/23 16:57:36;;;;;;;16.98;10.25;;;;;;;;;;8148044;29;20059;-59
2022/03/23 17:01:37;;;;;;;14.13;9.90;;;;;;;;;;8144192;28;20401;-60
2022/03/23 17:14:16;;;;;;;15.68;10.65;;;;;;;;;;8144752;29;20057;-60
2022/03/23 17:18:18;;;;;;;16.70;9.70;;;;;;;;;;8147768;28;20039;-59
2022/03/23 17:22:18;;;;;;;17.67;10.45;;;;;;;;;;8146785;28;20253;-60
2022/03/23 17:26:18;;;;;;;16.92;11.07;;;;;;;;;;8146445;29;20722;-59
2022/03/23 17:30:19;;;;;;;17.27;10.43;;;;;;;;;;8142662;28;20027;-59
2022/03/23 17:34:19;;;;;;;13.77;10.23;;;;;;;;;;8146428;28;20059;-60
2022/03/23 17:38:19;;;;;;;14.63;8.63;;;;;;;;;;8146069;28;20305;-59
2022/03/23 17:42:19;;;;;;;13.70;9.50;;;;;;;;;;8144802;29;20217;-60
2022/03/23 17:46:20;;;;;;;14.38;9.98;;;;;;;;;;8144821;28;20139;-59
2022/03/23 17:50:20;;;;;;;12.23;9.77;;;;;;;;;;8144377;28;20393;-59
2022/03/23 17:54:20;;;;;;;15.48;10.40;;;;;;;;;;8147546;29;20038;-60
2022/03/23 17:58:21;;;;;;;13.03;9.80;;;;;;;;;;8149218;28;20042;-59
2022/03/23 18:02:21;;;;;;;21.42;11.13;;;;;;;;;;8145669;28;20277;-59
2022/03/23 18:06:22;;;;;;;14.57;9.55;;;;;;;;;;8142311;28;20024;-59
2022/03/23 18:10:22;;;;;;;16.20;10.40;;;;;;;;;;8144464;28;20533;-59
2022/03/23 18:14:22;;;;;;;15.85;10.55;;;;;;;;;;8145787;28;20547;-59
2022/03/23 18:18:23;;;;;;;16.73;10.33;;;;;;;;;;8145001;28;20078;-60
2022/03/23 18:22:23;;;;;;;15.90;10.17;;;;;;;;;;8146162;28;20270;-59
2022/03/23 18:26:24;;;;;;;14.47;9.87;;;;;;;;;;8144252;28;20283;-59
2022/03/23 18:30:24;;;;;;;17.90;9.85;;;;;;;;;;8142636;28;21249;-59
2022/03/23 18:34:24;;;;;;;15.53;10.03;;;;;;;;;;8145707;28;20034;-59
2022/03/23 18:38:25;;;;;;;11.82;9.00;;;;;;;;;;8143399;28;20031;-59
2022/03/23 18:42:25;;;;;;;10.88;9.30;;;;;;;;;;8145030;29;20375;-59
2022/03/23 18:46:26;;;;;;;14.95;10.25;;;;;;;;;;8144802;28;20043;-59
2022/03/23 18:50:26;;;;;;;14.43;10.82;;;;;;;;;;8141797;29;20038;-59
2022/03/23 18:54:27;;;;;;;15.55;10.95;;;;;;;;;;8144859;28;20754;-59
2022/03/23 18:58:32;;;;;;;12.82;10.43;;;;;;;;;;8145278;29;20035;-59
2022/03/23 19:02:32;;;;;;;16.88;10.80;;;;;;;;;;8141864;28;20043;-59
2022/03/23 19:06:33;;;;;;;15.57;9.90;;;;;;;;;;8145620;29;20038;-59
2022/03/23 19:10:34;;;;;;;16.70;10.20;;;;;;;;;;8146626;29;20580;-59
2022/03/23 19:14:34;;;;;;;15.43;9.65;;;;;;;;;;8146138;28;20035;-59
2022/03/23 19:18:34;;;;;;;13.63;9.73;;;;;;;;;;8142739;28;20047;-59
2022/03/23 19:22:34;;;;;;;16.52;11.13;;;;;;;;;;8141311;29;20432;-59
2022/03/23 19:26:35;;;;;;;15.37;10.83;;;;;;;;;;8147119;28;20106;-59
2022/03/23 19:30:37;;;;;;;17.35;11.65;;;;;;;;;;8146807;28;20265;-59
2022/03/23 19:34:37;;;;;;;18.25;12.13;;;;;;;;;;8149210;29;20031;-59
2022/03/23 19:38:37;;;;;;;14.55;10.75;;;;;;;;;;8150953;28;20390;-58
2022/03/23 19:42:38;;;;;;;15.30;10.38;;;;;;;;;;8147117;28;20839;-59
2022/03/23 19:46:39;;;;;;;14.65;10.27;;;;;;;;;;8150295;28;20042;-59
2022/03/23 19:50:42;;;;;;;16.25;10.02;;;;;;;;;;8148638;29;20503;-59
2022/03/23 19:54:42;;;;;;;13.02;10.07;;;;;;;;;;8151261;29;20067;-59
2022/03/23 19:58:43;;;;;;;14.88;10.52;;;;;;;;;;8147332;28;20137;-59
2022/03/23 20:02:43;;;;;;;15.70;10.55;;;;;;;;;;8144859;28;20383;-59
2022/03/23 20:06:43;;;;;;;17.75;10.27;;;;;;;;;;8149585;29;20023;-59
2022/03/23 20:10:43;;;;;;;13.43;9.97;;;;;;;;;;8147375;28;20584;-59
2022/03/23 20:14:44;;;;;;;14.53;9.87;;;;;;;;;;8149807;28;20274;-59
2022/03/23 20:18:45;;;;;;;15.55;9.80;;;;;;;;;;8145957;28;20294;-59
2022/03/23 20:22:45;;;;;;;19.00;9.98;;;;;;;;;;8150617;29;20410;-59
2022/03/23 20:26:45;;;;;;;18.85;11.38;;;;;;;;;;8149819;28;20027;-59
2022/03/23 20:30:45;;;;;;;17.70;10.53;;;;;;;;;;8140879;28;20679;-59
2022/03/23 20:34:45;;;;;;;16.67;10.70;;;;;;;;;;8144021;29;20349;-59
2022/03/23 20:38:46;;;;;;;14.53;10.33;;;;;;;;;;8143192;28;20495;-59
2022/03/23 20:42:47;;;;;;;13.93;10.48;;;;;;;;;;8143645;28;20357;-59
2022/03/23 20:46:47;;;;;;;18.73;11.55;;;;;;;;;;8143126;28;20043;-59
2022/03/23 20:50:49;;;;;;;14.83;9.53;;;;;;;;;;8143802;29;20166;-59
2022/03/23 20:54:49;;;;;;;14.77;10.35;;;;;;;;;;8142391;29;20027;-59
2022/03/23 20:58:50;;;;;;;22.85;11.05;;;;;;;;;;8143537;29;20350;-59
2022/03/23 21:02:52;;;;;;;16.50;10.27;;;;;;;;;;8141575;28;20046;-59
2022/03/23 21:07:00;;;;;;;16.52;10.77;;;;;;;;;;8144201;28;20442;-59
2022/03/23 21:11:01;;;;;;;15.23;9.85;;;;;;;;;;8142506;28;20099;-59
2022/03/23 21:15:05;;;;;;;16.42;10.55;;;;;;;;;;8143328;28;20042;-59
2022/03/23 21:19:06;;;;;;;16.23;10.73;;;;;;;;;;8140501;29;20078;-59
2022/03/23 21:23:07;;;;;;;18.07;10.80;;;;;;;;;;8143845;29;20477;-59
2022/03/23 21:27:10;;;;;;;13.13;9.80;;;;;;;;;;8143945;29;21287;-59
2022/03/23 21:31:10;;;;;;;23.98;13.88;;;;;;;;;;8142988;28;20313;-59
2022/03/23 21:35:10;;;;;;;27.38;15.93;;;;;;;;;;8142183;29;20038;-59
2022/03/23 21:39:14;;;;;;;21.60;14.00;;;;;;;;;;8145249;28;20097;-59
2022/03/23 21:43:17;;;;;;;17.53;11.87;;;;;;;;;;8145436;28;20027;-59
2022/03/23 21:47:17;;;;;;;19.67;12.98;;;;;;;;;;8144282;28;20426;-59
2022/03/23 21:51:17;;;;;;;15.40;10.50;;;;;;;;;;8144170;29;20043;-59
2022/03/23 21:55:19;;;;;;;15.57;10.30;;;;;;;;;;8146688;28;20286;-59
2022/03/23 21:59:19;;;;;;;20.60;12.43;;;;;;;;;;8144477;29;20325;-59
2022/03/23 22:03:19;;;;;;;23.85;12.63;;;;;;;;;;8145203;28;20035;-59
2022/03/23 22:07:19;;;;;;;18.02;12.93;;;;;;;;;;8146582;29;20114;-58
2022/03/23 22:11:19;;;;;;;18.23;12.90;;;;;;;;;;8148214;29;20845;-59
2022/03/23 22:15:20;;;;;;;16.92;11.77;;;;;;;;;;8149903;28;20105;-59
2022/03/23 22:19:20;;;;;;;18.00;11.90;;;;;;;;;;8147875;28;20075;-59
2022/03/23 22:23:23;;;;;;;17.70;12.50;;;;;;;;;;8149177;29;20051;-59
2022/03/23 22:27:23;;;;;;;20.00;12.05;;;;;;;;;;8148917;29;20031;-59
2022/03/23 22:31:24;;;;;;;18.30;12.10;;;;;;;;;;8146729;28;20046;-59
2022/03/23 22:35:24;;;;;;;16.55;11.38;;;;;;;;;;8149458;28;20268;-59
2022/03/23 22:39:24;;;;;;;15.75;11.73;;;;;;;;;;8146564;28;20066;-59
2022/03/23 22:43:25;;;;;;;15.88;11.43;;;;;;;;;;8149415;29;20027;-59
2022/03/23 22:47:25;;;;;;;22.35;11.40;;;;;;;;;;8148689;28;20039;-59
2022/03/23 22:51:26;;;;;;;16.85;11.13;;;;;;;;;;8146902;28;20035;-59
2022/03/23 22:55:26;;;;;;;18.33;11.30;;;;;;;;;;8147175;28;20038;-59
2022/03/23 22:59:26;;;;;;;23.45;11.00;;;;;;;;;;8147809;28;20020;-59
2022/03/23 23:03:26;;;;;;;21.63;13.33;;;;;;;;;;8151398;28;20050;-59
2022/03/23 23:07:27;;;;;;;19.98;12.55;;;;;;;;;;8155019;28;20275;-58
2022/03/23 23:11:31;;;;;;;18.30;11.40;;;;;;;;;;8152504;28;20027;-59
2022/03/23 23:15:32;;;;;;;20.00;11.05;;;;;;;;;;8151077;28;20751;-60
2022/03/23 23:19:32;;;;;;;18.80;11.85;;;;;;;;;;8154730;28;20026;-59
2022/03/23 23:23:33;;;;;;;17.80;11.68;;;;;;;;;;8154375;28;20770;-58
2022/03/23 23:27:40;;;;;;;18.23;11.50;;;;;;;;;;8155172;29;20054;-58
2022/03/23 23:31:41;;;;;;;19.92;11.82;;;;;;;;;;8154735;28;20035;-59
2022/03/23 23:35:41;;;;;;;21.25;12.27;;;;;;;;;;8153690;28;20035;-59
2022/03/23 23:39:41;;;;;;;19.55;12.02;;;;;;;;;;8150193;29;20842;-59
2022/03/23 23:43:42;;;;;;;20.60;11.73;;;;;;;;;;8155881;28;20042;-60
2022/03/23 23:47:43;;;;;;;18.20;10.93;;;;;;;;;;8152181;28;20043;-59
2022/03/23 23:51:43;;;;;;;25.23;11.90;;;;;;;;;;8151453;29;20038;-59
2022/03/23 23:55:43;;;;;;;19.38;11.30;;;;;;;;;;8152547;28;20077;-60
2022/03/23 23:59:46;;;;;;;17.10;12.02;;;;;;;;;;8155713;28;20031;-59
